sensor_id;sensor_type;location;lat;lon;timestamp;pressure;altitude;pressure_sealevel;temperature;humidity
43281;BME280;62175;49.416;8.690;2023-09-18T00:00:43;99710.13;;;24.77;56.16
43281;BME280;62175;49.416;8.690;2023-09-18T00:03:09;99712.09;;;24.70;55.12
43281;BME280;62175;49.416;8.690;2023-09-18T00:05:36;99709.28;;;24.72;56.35
43281;BME280;62175;49.416;8.690;2023-09-18T00:08:03;99701.19;;;24.94;55.99
43281;BME280;62175;49.416;8.690;2023-09-18T00:10:30;99700.03;;;24.73;55.24
43281;BME280;62175;49.416;8.690;2023-09-18T00:12:57;99690.46;;;24.75;55.23
43281;BME280;62175;49.416;8.690;2023-09-18T00:15:24;99691.44;;;24.79;55.34
43281;BME280;62175;49.416;8.690;2023-09-18T00:17:51;99677.84;;;25.11;55.56
43281;BME280;62175;49.416;8.690;2023-09-18T00:20:18;99673.91;;;24.58;54.80
43281;BME280;62175;49.416;8.690;2023-09-18T00:22:45;99681.29;;;24.64;53.79
43281;BME280;62175;49.416;8.690;2023-09-18T00:25:11;99669.45;;;24.87;55.22
43281;BME280;62175;49.416;8.690;2023-09-18T00:27:38;99673.60;;;24.85;54.50
43281;BME280;62175;49.416;8.690;2023-09-18T00:30:06;99674.11;;;24.83;55.23
43281;BME280;62175;49.416;8.690;2023-09-18T00:32:35;99671.92;;;24.47;55.74
43281;BME280;62175;49.416;8.690;2023-09-18T00:35:03;99665.94;;;24.48;55.81
43281;BME280;62175;49.416;8.690;2023-09-18T00:37:30;99671.62;;;25.04;54.86
43281;BME280;62175;49.416;8.690;2023-09-18T00:39:57;99666.42;;;24.71;54.65
43281;BME280;62175;49.416;8.690;2023-09-18T00:42:24;99669.06;;;24.80;54.78
43281;BME280;62175;49.416;8.690;2023-09-18T00:44:50;99675.92;;;24.53;53.65
43281;BME280;62175;49.416;8.690;2023-09-18T00:47:17;99664.65;;;24.80;55.92
43281;BME280;62175;49.416;8.690;2023-09-18T00:49:47;99661.53;;;24.87;54.73
43281;BME280;62175;49.416;8.690;2023-09-18T00:52:16;99662.40;;;24.72;56.10
43281;BME280;62175;49.416;8.690;2023-09-18T00:54:44;99663.73;;;24.75;56.20
43281;BME280;62175;49.416;8.690;2023-09-18T00:57:12;99665.14;;;24.93;55.61
43281;BME280;62175;49.416;8.690;2023-09-18T00:59:39;99670.38;;;25.01;54.94
43281;BME280;62175;49.416;8.690;2023-09-18T01:02:07;99668.58;;;24.72;55.53
43281;BME280;62175;49.416;8.690;2023-09-18T01:04:35;99668.56;;;24.99;54.80
43281;BME280;62175;49.416;8.690;2023-09-18T01:07:02;99670.06;;;24.63;56.02
43281;BME280;62175;49.416;8.690;2023-09-18T01:09:29;99663.30;;;24.78;57.53
43281;BME280;62175;49.416;8.690;2023-09-18T01:12:04;99661.28;;;24.66;55.78
43281;BME280;62175;49.416;8.690;2023-09-18T01:14:38;99667.14;;;24.84;56.50
43281;BME280;62175;49.416;8.690;2023-09-18T01:17:09;99664.84;;;24.33;56.08
43281;BME280;62175;49.416;8.690;2023-09-18T01:19:38;99668.20;;;24.61;55.72
43281;BME280;62175;49.416;8.690;2023-09-18T01:22:05;99670.93;;;24.90;56.14
43281;BME280;62175;49.416;8.690;2023-09-18T01:24:33;99672.50;;;24.77;56.09
43281;BME280;62175;49.416;8.690;2023-09-18T01:26:59;99671.98;;;24.80;56.61
43281;BME280;62175;49.416;8.690;2023-09-18T01:29:26;99682.71;;;24.40;55.92
43281;BME280;62175;49.416;8.690;2023-09-18T01:31:54;99678.44;;;24.79;55.70
43281;BME280;62175;49.416;8.690;2023-09-18T01:34:22;99676.54;;;24.57;56.77
43281;BME280;62175;49.416;8.690;2023-09-18T01:36:52;99674.74;;;24.32;55.87
43281;BME280;62175;49.416;8.690;2023-09-18T01:39:20;99670.15;;;24.41;54.82
43281;BME280;62175;49.416;8.690;2023-09-18T01:41:48;99664.29;;;24.61;55.60
43281;BME280;62175;49.416;8.690;2023-09-18T01:44:16;99657.69;;;24.42;55.55
43281;BME280;62175;49.416;8.690;2023-09-18T01:46:43;99659.28;;;24.96;55.38
43281;BME280;62175;49.416;8.690;2023-09-18T01:49:11;99672.29;;;24.72;55.60
43281;BME280;62175;49.416;8.690;2023-09-18T01:51:38;99690.75;;;24.62;56.13
43281;BME280;62175;49.416;8.690;2023-09-18T01:54:05;99723.96;;;24.71;55.20
43281;BME280;62175;49.416;8.690;2023-09-18T01:56:32;99813.05;;;24.59;55.08
43281;BME280;62175;49.416;8.690;2023-09-18T01:58:59;99822.87;;;24.85;57.83
43281;BME280;62175;49.416;8.690;2023-09-18T02:01:26;99771.61;;;24.48;62.54
43281;BME280;62175;49.416;8.690;2023-09-18T02:03:53;99753.26;;;24.54;62.95
43281;BME280;62175;49.416;8.690;2023-09-18T02:06:19;99768.44;;;24.54;63.41
43281;BME280;62175;49.416;8.690;2023-09-18T02:08:46;99772.84;;;24.40;64.10
43281;BME280;62175;49.416;8.690;2023-09-18T02:11:13;99772.68;;;24.45;63.89
43281;BME280;62175;49.416;8.690;2023-09-18T02:13:40;99753.08;;;24.10;66.36
43281;BME280;62175;49.416;8.690;2023-09-18T02:16:07;99740.23;;;24.57;65.00
43281;BME280;62175;49.416;8.690;2023-09-18T02:18:34;99757.72;;;24.24;67.36
43281;BME280;62175;49.416;8.690;2023-09-18T02:21:01;99778.41;;;23.93;68.02
43281;BME280;62175;49.416;8.690;2023-09-18T02:23:28;99783.42;;;24.19;65.12
43281;BME280;62175;49.416;8.690;2023-09-18T02:25:56;99777.78;;;24.03;67.93
43281;BME280;62175;49.416;8.690;2023-09-18T02:28:23;99766.41;;;24.10;66.87
43281;BME280;62175;49.416;8.690;2023-09-18T02:30:50;99773.24;;;23.96;68.42
43281;BME280;62175;49.416;8.690;2023-09-18T02:33:17;99785.66;;;24.13;68.58
43281;BME280;62175;49.416;8.690;2023-09-18T02:35:44;99799.62;;;23.89;68.55
43281;BME280;62175;49.416;8.690;2023-09-18T02:38:11;99798.95;;;23.64;67.58
43281;BME280;62175;49.416;8.690;2023-09-18T02:40:38;99790.14;;;23.97;65.83
43281;BME280;62175;49.416;8.690;2023-09-18T02:43:04;99790.37;;;23.90;66.51
43281;BME280;62175;49.416;8.690;2023-09-18T02:45:31;99787.24;;;23.86;65.90
43281;BME280;62175;49.416;8.690;2023-09-18T02:47:58;99787.43;;;23.89;67.11
43281;BME280;62175;49.416;8.690;2023-09-18T02:50:25;99779.00;;;24.02;66.54
43281;BME280;62175;49.416;8.690;2023-09-18T02:52:51;99770.28;;;23.76;67.11
43281;BME280;62175;49.416;8.690;2023-09-18T02:55:18;99767.99;;;23.70;66.56
43281;BME280;62175;49.416;8.690;2023-09-18T02:57:45;99763.36;;;23.74;67.13
43281;BME280;62175;49.416;8.690;2023-09-18T03:00:13;99754.79;;;23.84;66.28
43281;BME280;62175;49.416;8.690;2023-09-18T03:02:40;99733.02;;;23.93;66.70
43281;BME280;62175;49.416;8.690;2023-09-18T03:05:07;99709.74;;;23.71;67.12
43281;BME280;62175;49.416;8.690;2023-09-18T03:07:34;99684.91;;;23.83;66.92
43281;BME280;62175;49.416;8.690;2023-09-18T03:10:01;99673.75;;;23.65;67.51
43281;BME280;62175;49.416;8.690;2023-09-18T03:12:28;99675.77;;;23.70;66.96
43281;BME280;62175;49.416;8.690;2023-09-18T03:14:55;99676.65;;;23.69;66.43
43281;BME280;62175;49.416;8.690;2023-09-18T03:17:21;99679.35;;;23.87;67.50
43281;BME280;62175;49.416;8.690;2023-09-18T03:19:49;99700.30;;;24.16;67.00
43281;BME280;62175;49.416;8.690;2023-09-18T03:22:16;99702.49;;;23.60;66.94
43281;BME280;62175;49.416;8.690;2023-09-18T03:24:43;99732.43;;;23.60;67.09
43281;BME280;62175;49.416;8.690;2023-09-18T03:27:11;99716.76;;;23.77;66.37
43281;BME280;62175;49.416;8.690;2023-09-18T03:29:37;99725.09;;;23.71;66.53
43281;BME280;62175;49.416;8.690;2023-09-18T03:32:05;99725.94;;;23.76;66.17
43281;BME280;62175;49.416;8.690;2023-09-18T03:34:32;99730.23;;;23.65;65.68
43281;BME280;62175;49.416;8.690;2023-09-18T03:36:59;99739.74;;;23.63;65.33
43281;BME280;62175;49.416;8.690;2023-09-18T03:39:26;99751.95;;;23.72;65.39
43281;BME280;62175;49.416;8.690;2023-09-18T03:41:52;99760.97;;;23.63;65.78
43281;BME280;62175;49.416;8.690;2023-09-18T03:44:20;99767.56;;;23.58;66.87
43281;BME280;62175;49.416;8.690;2023-09-18T03:46:47;99780.60;;;23.57;66.20
43281;BME280;62175;49.416;8.690;2023-09-18T03:49:14;99788.39;;;23.65;65.84
43281;BME280;62175;49.416;8.690;2023-09-18T03:51:41;99789.38;;;23.64;65.69
43281;BME280;62175;49.416;8.690;2023-09-18T03:54:08;99790.20;;;23.75;65.44
43281;BME280;62175;49.416;8.690;2023-09-18T03:56:36;99788.07;;;23.75;64.46
43281;BME280;62175;49.416;8.690;2023-09-18T03:59:03;99798.94;;;23.94;65.32
43281;BME280;62175;49.416;8.690;2023-09-18T04:01:30;99800.66;;;23.59;61.86
43281;BME280;62175;49.416;8.690;2023-09-18T04:03:56;99804.87;;;23.71;62.61
43281;BME280;62175;49.416;8.690;2023-09-18T04:06:24;99819.68;;;23.68;62.90
43281;BME280;62175;49.416;8.690;2023-09-18T04:08:50;99836.39;;;23.64;61.08
43281;BME280;62175;49.416;8.690;2023-09-18T04:11:18;99832.24;;;22.98;61.57
43281;BME280;62175;49.416;8.690;2023-09-18T04:13:45;99833.11;;;22.73;62.86
43281;BME280;62175;49.416;8.690;2023-09-18T04:16:12;99820.90;;;23.45;63.78
43281;BME280;62175;49.416;8.690;2023-09-18T04:18:39;99823.04;;;23.58;64.21
43281;BME280;62175;49.416;8.690;2023-09-18T04:21:06;99805.83;;;23.11;64.29
43281;BME280;62175;49.416;8.690;2023-09-18T04:23:33;99800.83;;;23.52;64.56
43281;BME280;62175;49.416;8.690;2023-09-18T04:26:00;99782.18;;;23.58;65.81
43281;BME280;62175;49.416;8.690;2023-09-18T04:28:27;99758.85;;;23.55;66.62
43281;BME280;62175;49.416;8.690;2023-09-18T04:30:56;99735.95;;;23.43;67.57
43281;BME280;62175;49.416;8.690;2023-09-18T04:33:23;99728.62;;;23.39;67.14
43281;BME280;62175;49.416;8.690;2023-09-18T04:35:49;99720.20;;;23.39;67.97
43281;BME280;62175;49.416;8.690;2023-09-18T04:38:17;99702.72;;;23.62;68.14
43281;BME280;62175;49.416;8.690;2023-09-18T04:40:44;99708.15;;;23.69;67.03
43281;BME280;62175;49.416;8.690;2023-09-18T04:43:10;99714.94;;;23.55;67.05
43281;BME280;62175;49.416;8.690;2023-09-18T04:45:37;99703.64;;;23.61;66.94
43281;BME280;62175;49.416;8.690;2023-09-18T04:48:05;99709.21;;;23.19;65.69
43281;BME280;62175;49.416;8.690;2023-09-18T04:50:32;99704.77;;;23.58;66.90
43281;BME280;62175;49.416;8.690;2023-09-18T04:52:59;99694.12;;;23.40;66.13
43281;BME280;62175;49.416;8.690;2023-09-18T04:55:25;99670.73;;;23.29;65.49
43281;BME280;62175;49.416;8.690;2023-09-18T04:57:52;99670.87;;;23.44;66.04
43281;BME280;62175;49.416;8.690;2023-09-18T05:00:19;99660.25;;;23.45;65.92
43281;BME280;62175;49.416;8.690;2023-09-18T05:02:47;99654.46;;;23.81;66.73
43281;BME280;62175;49.416;8.690;2023-09-18T05:05:14;99648.77;;;23.55;66.54
43281;BME280;62175;49.416;8.690;2023-09-18T05:07:42;99656.81;;;23.53;66.36
43281;BME280;62175;49.416;8.690;2023-09-18T05:10:10;99654.61;;;23.67;65.85
43281;BME280;62175;49.416;8.690;2023-09-18T05:12:39;99646.89;;;23.43;66.16
43281;BME280;62175;49.416;8.690;2023-09-18T05:15:07;99642.13;;;23.39;66.07
43281;BME280;62175;49.416;8.690;2023-09-18T05:17:43;99655.63;;;23.65;66.16
43281;BME280;62175;49.416;8.690;2023-09-18T05:20:11;99659.24;;;23.38;65.00
43281;BME280;62175;49.416;8.690;2023-09-18T05:22:39;99663.38;;;23.68;65.26
43281;BME280;62175;49.416;8.690;2023-09-18T05:25:07;99657.30;;;23.74;65.31
43281;BME280;62175;49.416;8.690;2023-09-18T05:27:34;99640.09;;;23.80;67.48
43281;BME280;62175;49.416;8.690;2023-09-18T05:30:01;99644.06;;;23.77;66.42
43281;BME280;62175;49.416;8.690;2023-09-18T05:32:28;99661.28;;;23.59;66.23
43281;BME280;62175;49.416;8.690;2023-09-18T05:34:55;99682.89;;;23.48;66.67
43281;BME280;62175;49.416;8.690;2023-09-18T05:37:21;99686.03;;;23.49;66.40
43281;BME280;62175;49.416;8.690;2023-09-18T05:39:48;99675.17;;;23.24;66.10
43281;BME280;62175;49.416;8.690;2023-09-18T05:42:15;99671.96;;;22.99;67.19
43281;BME280;62175;49.416;8.690;2023-09-18T05:44:42;99689.29;;;23.69;66.63
43281;BME280;62175;49.416;8.690;2023-09-18T05:47:09;99703.80;;;23.30;66.97
43281;BME280;62175;49.416;8.690;2023-09-18T05:49:37;99727.11;;;23.27;67.63
43281;BME280;62175;49.416;8.690;2023-09-18T05:52:04;99744.77;;;23.58;67.60
43281;BME280;62175;49.416;8.690;2023-09-18T05:54:31;99749.84;;;23.25;68.15
43281;BME280;62175;49.416;8.690;2023-09-18T05:56:58;99754.09;;;23.51;68.45
43281;BME280;62175;49.416;8.690;2023-09-18T05:59:26;99743.81;;;23.53;67.99
43281;BME280;62175;49.416;8.690;2023-09-18T06:01:53;99739.61;;;23.60;68.31
43281;BME280;62175;49.416;8.690;2023-09-18T06:04:20;99740.71;;;23.54;68.85
43281;BME280;62175;49.416;8.690;2023-09-18T06:06:47;99736.06;;;23.30;68.62
43281;BME280;62175;49.416;8.690;2023-09-18T06:09:14;99731.51;;;23.11;68.68
43281;BME280;62175;49.416;8.690;2023-09-18T06:11:41;99730.35;;;23.52;70.40
43281;BME280;62175;49.416;8.690;2023-09-18T06:14:08;99729.63;;;23.59;69.36
43281;BME280;62175;49.416;8.690;2023-09-18T06:16:35;99736.02;;;23.14;69.90
43281;BME280;62175;49.416;8.690;2023-09-18T06:19:02;99731.40;;;23.56;68.83
43281;BME280;62175;49.416;8.690;2023-09-18T06:21:29;99735.67;;;23.18;67.07
43281;BME280;62175;49.416;8.690;2023-09-18T06:23:56;99751.19;;;23.32;68.82
43281;BME280;62175;49.416;8.690;2023-09-18T06:26:23;99763.14;;;23.00;67.17
43281;BME280;62175;49.416;8.690;2023-09-18T06:28:50;99770.81;;;23.48;66.73
43281;BME280;62175;49.416;8.690;2023-09-18T06:31:17;99779.78;;;23.34;67.64
43281;BME280;62175;49.416;8.690;2023-09-18T06:33:45;99790.85;;;23.46;67.88
43281;BME280;62175;49.416;8.690;2023-09-18T06:36:11;99795.19;;;23.34;66.74
43281;BME280;62175;49.416;8.690;2023-09-18T06:38:38;99800.82;;;23.16;67.06
43281;BME280;62175;49.416;8.690;2023-09-18T06:41:08;99802.90;;;22.96;67.23
43281;BME280;62175;49.416;8.690;2023-09-18T06:43:35;99813.76;;;23.33;69.33
43281;BME280;62175;49.416;8.690;2023-09-18T06:46:02;99818.21;;;23.01;67.90
43281;BME280;62175;49.416;8.690;2023-09-18T06:48:30;99811.52;;;23.33;67.47
43281;BME280;62175;49.416;8.690;2023-09-18T06:51:00;99812.85;;;23.16;67.92
43281;BME280;62175;49.416;8.690;2023-09-18T06:53:30;99817.38;;;23.29;69.40
43281;BME280;62175;49.416;8.690;2023-09-18T06:56:02;99830.26;;;23.62;68.15
43281;BME280;62175;49.416;8.690;2023-09-18T06:58:31;99829.86;;;23.31;67.11
43281;BME280;62175;49.416;8.690;2023-09-18T07:01:05;99833.95;;;23.65;68.24
43281;BME280;62175;49.416;8.690;2023-09-18T07:03:37;99824.02;;;23.36;67.52
43281;BME280;62175;49.416;8.690;2023-09-18T07:06:05;99828.52;;;23.42;66.56
43281;BME280;62175;49.416;8.690;2023-09-18T07:08:53;99835.73;;;23.44;66.56
43281;BME280;62175;49.416;8.690;2023-09-18T07:11:32;99843.92;;;23.50;66.92
43281;BME280;62175;49.416;8.690;2023-09-18T07:14:14;99846.05;;;23.47;65.89
43281;BME280;62175;49.416;8.690;2023-09-18T07:16:42;99850.72;;;23.27;65.86
43281;BME280;62175;49.416;8.690;2023-09-18T07:19:19;99865.72;;;23.53;65.04
43281;BME280;62175;49.416;8.690;2023-09-18T07:21:47;99861.02;;;23.50;65.84
43281;BME280;62175;49.416;8.690;2023-09-18T07:24:36;99865.79;;;23.52;65.35
43281;BME280;62175;49.416;8.690;2023-09-18T07:27:04;99871.97;;;23.56;66.04
43281;BME280;62175;49.416;8.690;2023-09-18T07:29:31;99865.54;;;23.46;63.88
43281;BME280;62175;49.416;8.690;2023-09-18T07:32:00;99881.36;;;23.28;66.81
43281;BME280;62175;49.416;8.690;2023-09-18T07:34:31;99875.45;;;23.61;64.95
43281;BME280;62175;49.416;8.690;2023-09-18T07:37:03;99875.43;;;23.62;65.17
43281;BME280;62175;49.416;8.690;2023-09-18T07:39:31;99869.83;;;23.27;65.58
43281;BME280;62175;49.416;8.690;2023-09-18T07:42:00;99873.66;;;23.01;65.06
43281;BME280;62175;49.416;8.690;2023-09-18T07:44:37;99870.85;;;23.33;64.73
43281;BME280;62175;49.416;8.690;2023-09-18T07:47:07;99882.24;;;23.31;65.60
43281;BME280;62175;49.416;8.690;2023-09-18T07:49:37;99890.05;;;23.22;64.87
43281;BME280;62175;49.416;8.690;2023-09-18T08:09:39;99909.45;;;23.67;63.92
43281;BME280;62175;49.416;8.690;2023-09-18T08:12:20;99915.21;;;21.87;63.75
43281;BME280;62175;49.416;8.690;2023-09-18T08:20:21;99916.00;;;23.58;62.78
43281;BME280;62175;49.416;8.690;2023-09-18T08:23:28;99907.10;;;24.02;64.64
43281;BME280;62175;49.416;8.690;2023-09-18T08:36:58;99882.80;;;24.13;62.60
43281;BME280;62175;49.416;8.690;2023-09-18T08:41:08;99870.00;;;23.99;61.76
43281;BME280;62175;49.416;8.690;2023-09-18T08:46:18;99866.13;;;23.24;61.07
43281;BME280;62175;49.416;8.690;2023-09-18T08:48:52;99846.60;;;23.89;61.58
43281;BME280;62175;49.416;8.690;2023-09-18T08:51:35;99854.87;;;23.93;61.79
43281;BME280;62175;49.416;8.690;2023-09-18T08:54:31;99852.42;;;23.83;62.84
43281;BME280;62175;49.416;8.690;2023-09-18T08:58:07;99855.18;;;23.47;62.66
43281;BME280;62175;49.416;8.690;2023-09-18T09:00:40;99847.94;;;23.42;63.15
43281;BME280;62175;49.416;8.690;2023-09-18T09:03:52;99835.04;;;23.83;64.58
43281;BME280;62175;49.416;8.690;2023-09-18T09:08:13;99837.37;;;23.44;64.39
43281;BME280;62175;49.416;8.690;2023-09-18T09:47:17;99942.79;;;23.57;65.52
43281;BME280;62175;49.416;8.690;2023-09-18T09:49:46;99946.00;;;23.17;64.44
43281;BME280;62175;49.416;8.690;2023-09-18T09:52:19;99938.01;;;23.19;64.10
43281;BME280;62175;49.416;8.690;2023-09-18T09:54:47;99921.96;;;23.06;64.25
43281;BME280;62175;49.416;8.690;2023-09-18T09:57:23;99911.67;;;23.43;64.17
43281;BME280;62175;49.416;8.690;2023-09-18T10:00:06;99915.66;;;23.10;63.86
43281;BME280;62175;49.416;8.690;2023-09-18T10:02:39;99902.49;;;23.30;64.49
43281;BME280;62175;49.416;8.690;2023-09-18T10:05:08;99896.30;;;23.38;63.24
43281;BME280;62175;49.416;8.690;2023-09-18T10:07:39;99899.09;;;23.18;63.57
43281;BME280;62175;49.416;8.690;2023-09-18T10:10:15;99899.94;;;23.35;62.96
43281;BME280;62175;49.416;8.690;2023-09-18T10:12:49;99893.08;;;23.82;64.31
43281;BME280;62175;49.416;8.690;2023-09-18T10:15:20;99896.95;;;23.26;62.36
43281;BME280;62175;49.416;8.690;2023-09-18T10:19:02;99898.49;;;23.25;64.76
43281;BME280;62175;49.416;8.690;2023-09-18T10:21:49;99891.59;;;23.23;62.64
43281;BME280;62175;49.416;8.690;2023-09-18T10:24:26;99887.02;;;23.44;63.78
43281;BME280;62175;49.416;8.690;2023-09-18T10:27:18;99892.06;;;23.41;65.12
43281;BME280;62175;49.416;8.690;2023-09-18T10:29:52;99896.96;;;23.53;64.01
43281;BME280;62175;49.416;8.690;2023-09-18T10:32:21;99906.14;;;23.35;63.53
43281;BME280;62175;49.416;8.690;2023-09-18T10:34:55;99907.13;;;23.37;61.74
43281;BME280;62175;49.416;8.690;2023-09-18T10:37:31;99910.09;;;23.52;62.58
43281;BME280;62175;49.416;8.690;2023-09-18T10:40:22;99914.93;;;23.27;61.92
43281;BME280;62175;49.416;8.690;2023-09-18T10:42:55;99903.97;;;23.24;62.36
43281;BME280;62175;49.416;8.690;2023-09-18T10:45:30;99892.09;;;23.09;62.83
43281;BME280;62175;49.416;8.690;2023-09-18T10:48:05;99900.46;;;23.56;62.50
43281;BME280;62175;49.416;8.690;2023-09-18T10:50:43;99900.40;;;23.33;62.13
43281;BME280;62175;49.416;8.690;2023-09-18T10:53:14;99896.79;;;23.24;61.63
43281;BME280;62175;49.416;8.690;2023-09-18T10:55:52;99897.93;;;23.08;61.16
43281;BME280;62175;49.416;8.690;2023-09-18T10:58:34;99887.46;;;23.27;61.42
43281;BME280;62175;49.416;8.690;2023-09-18T11:01:05;99893.66;;;23.38;61.65
43281;BME280;62175;49.416;8.690;2023-09-18T11:04:18;99894.30;;;23.45;63.41
43281;BME280;62175;49.416;8.690;2023-09-18T11:08:35;99891.05;;;24.27;61.79
43281;BME280;62175;49.416;8.690;2023-09-18T11:28:24;99874.39;;;23.87;61.22
43281;BME280;62175;49.416;8.690;2023-09-18T11:30:56;99882.94;;;22.09;60.76
43281;BME280;62175;49.416;8.690;2023-09-18T11:33:36;99876.89;;;22.79;58.85
43281;BME280;62175;49.416;8.690;2023-09-18T11:36:29;99875.93;;;24.14;57.64
43281;BME280;62175;49.416;8.690;2023-09-18T11:39:50;99883.91;;;24.40;57.90
43281;BME280;62175;49.416;8.690;2023-09-18T11:42:24;99895.46;;;24.31;58.86
43281;BME280;62175;49.416;8.690;2023-09-18T11:48:04;99902.11;;;24.37;59.13
43281;BME280;62175;49.416;8.690;2023-09-18T11:50:44;99904.61;;;23.92;58.21
43281;BME280;62175;49.416;8.690;2023-09-18T11:53:16;99904.21;;;23.56;58.17
43281;BME280;62175;49.416;8.690;2023-09-18T11:55:46;99908.94;;;23.64;58.72
43281;BME280;62175;49.416;8.690;2023-09-18T12:00:06;99908.65;;;23.25;58.36
43281;BME280;62175;49.416;8.690;2023-09-18T12:03:24;99906.97;;;23.72;57.62
43281;BME280;62175;49.416;8.690;2023-09-18T12:06:01;99897.74;;;23.73;56.85
43281;BME280;62175;49.416;8.690;2023-09-18T12:09:07;99899.47;;;24.06;58.26
43281;BME280;62175;49.416;8.690;2023-09-18T12:11:44;99900.58;;;24.09;58.33
43281;BME280;62175;49.416;8.690;2023-09-18T12:14:22;99903.85;;;24.22;57.78
43281;BME280;62175;49.416;8.690;2023-09-18T12:17:07;99897.51;;;23.16;59.23
43281;BME280;62175;49.416;8.690;2023-09-18T13:43:49;99858.08;;;23.52;57.63
43281;BME280;62175;49.416;8.690;2023-09-18T13:46:16;99848.61;;;22.02;57.57
43281;BME280;62175;49.416;8.690;2023-09-18T13:48:48;99840.28;;;22.44;54.93
43281;BME280;62175;49.416;8.690;2023-09-18T13:51:21;99840.89;;;23.02;54.22
43281;BME280;62175;49.416;8.690;2023-09-18T13:53:54;99838.86;;;24.40;53.10
43281;BME280;62175;49.416;8.690;2023-09-18T13:56:34;99832.21;;;24.69;53.11
43281;BME280;62175;49.416;8.690;2023-09-18T13:59:03;99829.11;;;24.53;51.56
43281;BME280;62175;49.416;8.690;2023-09-18T14:01:33;99833.60;;;24.12;54.72
43281;BME280;62175;49.416;8.690;2023-09-18T14:04:04;99832.56;;;23.78;54.21
43281;BME280;62175;49.416;8.690;2023-09-18T14:22:58;99803.10;;;24.02;55.98
43281;BME280;62175;49.416;8.690;2023-09-18T14:25:36;99808.66;;;22.61;55.08
43281;BME280;62175;49.416;8.690;2023-09-18T14:28:07;99799.60;;;23.29;54.06
43281;BME280;62175;49.416;8.690;2023-09-18T14:30:34;99801.49;;;24.70;54.09
43281;BME280;62175;49.416;8.690;2023-09-18T14:33:02;99785.26;;;24.39;54.12
43281;BME280;62175;49.416;8.690;2023-09-18T14:35:31;99785.04;;;24.11;53.72
43281;BME280;62175;49.416;8.690;2023-09-18T14:37:59;99779.45;;;24.51;53.45
43281;BME280;62175;49.416;8.690;2023-09-18T14:40:36;99779.49;;;24.60;54.14
43281;BME280;62175;49.416;8.690;2023-09-18T14:43:04;99775.21;;;24.52;52.73
43281;BME280;62175;49.416;8.690;2023-09-18T14:45:38;99781.64;;;24.69;52.83
43281;BME280;62175;49.416;8.690;2023-09-18T14:48:10;99775.85;;;24.62;53.86
43281;BME280;62175;49.416;8.690;2023-09-18T14:50:38;99769.07;;;24.06;55.56
43281;BME280;62175;49.416;8.690;2023-09-18T14:53:09;99764.09;;;24.48;54.99
43281;BME280;62175;49.416;8.690;2023-09-18T14:55:37;99760.19;;;24.50;54.64
43281;BME280;62175;49.416;8.690;2023-09-18T14:58:04;99762.29;;;24.45;54.46
43281;BME280;62175;49.416;8.690;2023-09-18T15:00:32;99746.92;;;24.34;53.97
43281;BME280;62175;49.416;8.690;2023-09-18T15:03:05;99741.39;;;24.35;54.71
43281;BME280;62175;49.416;8.690;2023-09-18T15:05:34;99738.46;;;24.50;55.86
43281;BME280;62175;49.416;8.690;2023-09-18T15:08:03;99736.83;;;24.63;54.21
43281;BME280;62175;49.416;8.690;2023-09-18T15:10:34;99734.54;;;24.56;54.62
43281;BME280;62175;49.416;8.690;2023-09-18T15:13:04;99724.35;;;24.28;54.74
43281;BME280;62175;49.416;8.690;2023-09-18T15:15:34;99721.85;;;24.72;53.75
43281;BME280;62175;49.416;8.690;2023-09-18T15:18:08;99719.78;;;24.54;54.40
43281;BME280;62175;49.416;8.690;2023-09-18T15:45:47;99702.58;;;24.16;58.45
43281;BME280;62175;49.416;8.690;2023-09-18T15:48:32;99698.67;;;22.44;55.81
43281;BME280;62175;49.416;8.690;2023-09-18T15:51:16;99696.82;;;23.19;56.51
43281;BME280;62175;49.416;8.690;2023-09-18T15:53:49;99699.84;;;23.46;54.34
43281;BME280;62175;49.416;8.690;2023-09-18T15:56:29;99700.11;;;25.12;53.00
43281;BME280;62175;49.416;8.690;2023-09-18T16:00:29;99715.45;;;24.88;52.99
43281;BME280;62175;49.416;8.690;2023-09-18T16:03:03;99716.88;;;24.80;52.64
43281;BME280;62175;49.416;8.690;2023-09-18T16:05:30;99718.34;;;24.59;53.87
43281;BME280;62175;49.416;8.690;2023-09-18T16:07:58;99717.98;;;24.56;53.96
43281;BME280;62175;49.416;8.690;2023-09-18T16:10:38;99713.12;;;24.12;54.44
43281;BME280;62175;49.416;8.690;2023-09-18T16:13:16;99711.82;;;24.18;54.86
43281;BME280;62175;49.416;8.690;2023-09-18T16:16:14;99709.41;;;24.46;54.50
43281;BME280;62175;49.416;8.690;2023-09-18T16:18:54;99706.88;;;24.20;55.27
43281;BME280;62175;49.416;8.690;2023-09-18T16:21:25;99706.09;;;24.64;55.52
43281;BME280;62175;49.416;8.690;2023-09-18T16:24:11;99709.56;;;24.47;54.55
43281;BME280;62175;49.416;8.690;2023-09-18T22:02:52;99966.52;;;21.61;59.53
43281;BME280;62175;49.416;8.690;2023-09-18T22:05:20;99965.83;;;21.98;62.73
43281;BME280;62175;49.416;8.690;2023-09-18T22:07:47;99958.97;;;22.03;60.37
43281;BME280;62175;49.416;8.690;2023-09-18T22:10:14;99965.23;;;22.01;58.73
43281;BME280;62175;49.416;8.690;2023-09-18T22:12:41;99969.20;;;22.13;59.94
43281;BME280;62175;49.416;8.690;2023-09-18T22:15:09;99975.86;;;22.12;59.55
43281;BME280;62175;49.416;8.690;2023-09-18T22:17:36;99975.76;;;22.55;59.50
43281;BME280;62175;49.416;8.690;2023-09-18T22:20:03;99976.03;;;22.07;60.19
43281;BME280;62175;49.416;8.690;2023-09-18T22:22:30;99974.15;;;22.27;59.22
43281;BME280;62175;49.416;8.690;2023-09-18T22:24:57;99973.99;;;22.15;58.45
43281;BME280;62175;49.416;8.690;2023-09-18T22:27:24;99977.32;;;22.50;61.02
43281;BME280;62175;49.416;8.690;2023-09-18T22:29:51;99987.06;;;21.79;60.50
43281;BME280;62175;49.416;8.690;2023-09-18T22:32:18;99988.95;;;22.13;59.50
43281;BME280;62175;49.416;8.690;2023-09-18T22:34:46;99991.02;;;22.12;59.28
43281;BME280;62175;49.416;8.690;2023-09-18T22:37:12;99993.28;;;22.25;62.40
